Time;durP1;ratioP1;P1;durP2;ratioP2;P2;SDS_P1;SDS_P2;PMS_P1;PMS_P2;Temp;Humidity;BMP_temperature;BMP_pressure;BME280_temperature;BME280_humidity;BME280_pressure;Samples;Min_cycle;Max_cycle;Signal;HPM_P1;HPM_P2
2022/08/15 00:02:48;;;;;;;8.50;6.40;;;;;;;18.53;74.19;99200.30;213797;1276;140384;-69
2022/08/15 00:07:53;;;;;;;11.00;6.80;;;;;;;18.51;74.37;99195.80;213451;1276;142681;-67
2022/08/15 00:13:00;;;;;;;17.20;6.60;;;;;;;18.51;74.48;99191.42;213156;1276;140271;-67
2022/08/15 00:18:20;;;;;;;7.70;6.40;;;;;;;18.51;74.62;99193.16;213615;1276;140132;-65
2022/08/15 00:23:26;;;;;;;11.60;6.90;;;;;;;18.44;74.55;99196.95;214083;1276;144087;-67
2022/08/15 00:28:32;;;;;;;8.10;7.30;;;;;;;18.36;74.62;99199.15;215339;1276;143434;-68
2022/08/15 00:33:42;;;;;;;10.10;6.20;;;;;;;18.21;74.64;99198.42;214297;1276;141916;-68
2022/08/15 00:38:46;;;;;;;8.90;7.30;;;;;;;18.21;74.97;99195.77;214677;1275;141722;-67
2022/08/15 00:43:56;;;;;;;6.20;5.60;;;;;;;18.26;75.21;99192.52;214145;1276;141430;-67
2022/08/15 00:49:00;;;;;;;6.60;5.80;;;;;;;18.30;75.38;99184.89;215319;1275;142358;-68
2022/08/15 00:54:12;;;;;;;15.40;7.20;;;;;;;18.32;75.59;99190.63;214733;1276;140165;-66
2022/08/15 00:59:44;;;;;;;6.90;6.30;;;;;;;18.30;75.24;99185.91;215737;1276;140793;-68
2022/08/15 01:04:59;;;;;;;12.80;6.30;;;;;;;18.18;74.90;99180.83;215758;1276;141015;-66
2022/08/15 01:10:07;;;;;;;7.20;6.50;;;;;;;18.09;75.25;99176.95;215149;1276;140874;-66
2022/08/15 01:15:27;;;;;;;7.50;6.70;;;;;;;18.05;75.26;99177.61;215051;1276;141779;-66
2022/08/15 01:20:45;;;;;;;6.20;5.60;;;;;;;18.07;75.67;99173.63;213797;1276;143231;-69
2022/08/15 01:26:18;;;;;;;9.30;6.00;;;;;;;18.09;75.71;99169.55;215004;1276;140191;-68
2022/08/15 01:31:43;;;;;;;11.00;5.80;;;;;;;18.07;75.83;99168.02;214051;1276;139869;-66
2022/08/15 01:36:51;;;;;;;14.00;6.50;;;;;;;18.05;75.68;99167.20;214334;1278;140285;-66
2022/08/15 01:42:07;;;;;;;12.00;7.00;;;;;;;17.99;75.34;99165.70;214015;1276;141075;-66
2022/08/15 01:47:23;;;;;;;7.90;7.20;;;;;;;17.85;75.42;99157.69;211199;1276;2505001;-65
2022/08/15 01:52:38;;;;;;;9.60;6.70;;;;;;;17.80;75.76;99147.09;213717;1276;140528;-66
2022/08/15 01:58:07;;;;;;;11.40;7.60;;;;;;;17.65;75.63;99139.21;213409;1276;141223;-66
2022/08/15 02:03:12;;;;;;;7.80;6.00;;;;;;;17.59;75.77;99136.17;215155;1276;141357;-67
2022/08/15 02:08:26;;;;;;;9.20;6.80;;;;;;;17.50;75.60;99135.27;213753;1276;141160;-67
2022/08/15 02:13:41;;;;;;;9.90;6.50;;;;;;;17.40;75.86;99129.80;213639;1276;141222;-66
2022/08/15 02:18:47;;;;;;;11.10;7.60;;;;;;;17.42;76.34;99130.45;213873;1276;140787;-66
2022/08/15 02:23:55;;;;;;;14.70;7.80;;;;;;;17.46;76.33;99128.66;213204;1276;140443;-66
2022/08/15 02:28:59;;;;;;;10.40;8.60;;;;;;;17.41;76.23;99124.01;213779;1275;140173;-66
2022/08/15 02:34:10;;;;;;;12.00;8.60;;;;;;;17.30;76.34;99123.11;213282;1276;140863;-66
2022/08/15 02:39:20;;;;;;;9.90;8.90;;;;;;;17.27;76.55;99118.46;213879;1276;140966;-66
2022/08/15 02:44:26;;;;;;;11.10;8.30;;;;;;;17.27;76.62;99124.67;214322;1276;142753;-66
2022/08/15 02:49:33;;;;;;;13.10;9.40;;;;;;;17.26;76.55;99121.89;214808;1277;140975;-66
2022/08/15 02:54:51;;;;;;;10.80;8.30;;;;;;;17.25;76.57;99111.13;216031;1276;140929;-68
2022/08/15 03:00:09;;;;;;;12.30;9.30;;;;;;;17.25;76.73;99107.02;216096;1276;209284;-67
2022/08/15 03:05:25;;;;;;;15.80;9.20;;;;;;;17.26;76.67;99104.11;215863;1276;139979;-67
2022/08/15 03:10:29;;;;;;;11.30;9.70;;;;;;;17.22;76.58;99104.27;214722;1276;140965;-67
2022/08/15 03:15:46;;;;;;;10.10;9.10;;;;;;;17.19;76.69;99102.00;215194;1276;140474;-67
2022/08/15 03:21:04;;;;;;;10.70;8.00;;;;;;;17.22;76.87;99108.36;214781;1276;140063;-67
2022/08/15 03:26:12;;;;;;;14.10;7.10;;;;;;;17.22;76.66;99120.59;214054;1277;140104;-66
2022/08/15 03:31:35;;;;;;;23.30;8.70;;;;;;;17.14;76.75;99120.92;214703;1277;139956;-67
2022/08/15 03:36:51;;;;;;;9.40;8.50;;;;;;;17.12;76.85;99124.16;214612;1276;140908;-67
2022/08/15 03:41:55;;;;;;;12.60;8.10;;;;;;;17.14;76.96;99119.14;214053;1277;140054;-65
2022/08/15 03:47:00;;;;;;;9.10;8.20;;;;;;;17.18;77.10;99114.89;214070;1276;141456;-66
2022/08/15 03:52:06;;;;;;;10.80;7.40;;;;;;;17.12;76.94;99115.57;213275;1277;141878;-66
2022/08/15 03:57:10;;;;;;;12.00;8.30;;;;;;;17.12;77.19;99115.19;214362;1276;143400;-65
2022/08/15 04:02:25;;;;;;;10.10;8.60;;;;;;;16.99;77.00;99113.94;213451;1277;141293;-66
2022/08/15 04:07:36;;;;;;;11.60;8.80;;;;;;;17.03;77.76;99115.52;213701;1276;141476;-66
2022/08/15 04:12:43;;;;;;;16.40;8.70;;;;;;;17.04;77.78;99122.54;213858;1278;140952;-66
2022/08/15 04:17:48;;;;;;;15.90;8.50;;;;;;;17.15;78.35;99121.17;214238;1277;141313;-64
2022/08/15 04:23:01;;;;;;;9.30;8.20;;;;;;;17.33;78.63;99118.59;214313;1277;140410;-66
2022/08/15 04:28:08;;;;;;;9.80;8.00;;;;;;;17.53;78.75;99117.83;214097;1277;142523;-64
2022/08/15 04:33:32;;;;;;;10.10;9.00;;;;;;;17.70;78.71;99112.88;214520;1276;140678;-66
2022/08/15 04:38:57;;;;;;;9.00;7.60;;;;;;;17.88;78.95;99112.98;214664;1275;141136;-66
2022/08/15 04:44:05;;;;;;;21.90;9.40;;;;;;;18.07;78.79;99105.06;215463;1277;140729;-66
2022/08/15 04:49:21;;;;;;;12.30;8.80;;;;;;;18.27;78.72;99098.93;213443;1277;140134;-67
2022/08/15 04:54:25;;;;;;;12.30;9.90;;;;;;;18.36;78.66;99081.40;215985;1276;141229;-67
2022/08/15 04:59:30;;;;;;;16.90;8.50;;;;;;;18.53;78.61;99079.66;214514;1277;141068;-67
2022/08/15 05:04:40;;;;;;;11.90;9.20;;;;;;;18.77;78.73;99074.71;215809;1277;140789;-68
2022/08/15 05:09:43;;;;;;;15.20;9.50;;;;;;;18.92;78.74;99071.27;215950;1277;141014;-67
2022/08/15 05:15:08;;;;;;;13.80;9.00;;;;;;;18.99;78.73;99079.81;215999;1277;141553;-67
2022/08/15 05:20:14;;;;;;;;;;;;;;;19.22;78.87;99085.81;215279;1277;140831;-66
2022/08/15 05:25:20;;;;;;;12.50;11.20;;;;;;;19.51;78.64;99083.08;215759;1277;127239;-66
2022/08/15 05:30:24;;;;;;;13.10;11.80;;;;;;;19.86;78.47;99082.42;214720;1277;141789;-65
2022/08/15 05:35:34;;;;;;;13.90;12.50;;;;;;;20.12;77.86;99083.08;214038;1276;141919;-65
2022/08/15 05:40:51;;;;;;;19.20;14.00;;;;;;;20.49;77.62;99084.20;213794;1277;141812;-65
2022/08/15 05:46:18;;;;;;;16.00;12.40;;;;;;;20.78;77.79;99089.52;214129;1277;141122;-65
2022/08/15 05:51:38;;;;;;;15.50;11.80;;;;;;;21.31;77.10;99091.96;214074;1276;141477;-66
2022/08/15 05:57:05;;;;;;;15.40;12.70;;;;;;;23.04;75.59;99086.80;214127;1276;141505;-65
2022/08/15 06:02:34;;;;;;;19.30;14.00;;;;;;;23.24;75.15;99087.44;214181;1276;141501;-64
2022/08/15 06:08:00;;;;;;;14.10;12.60;;;;;;;23.19;74.50;99084.31;214158;1276;142190;-65
2022/08/15 06:13:46;;;;;;;13.50;12.20;;;;;;;23.17;74.20;99085.42;213128;1276;225711;-65
2022/08/15 06:18:50;;;;;;;10.90;9.70;;;;;;;23.19;74.41;99090.77;214430;1276;142147;-66
2022/08/15 06:24:44;;;;;;;13.30;12.10;;;;;;;23.10;74.38;99098.14;214120;1276;140572;-66
2022/08/15 06:30:02;;;;;;;14.00;12.30;;;;;;;23.21;74.32;99095.36;212477;1283;142555;-65
2022/08/15 06:35:31;;;;;;;17.90;12.50;;;;;;;23.36;73.85;99094.02;213930;1276;140317;-64
2022/08/15 06:40:58;;;;;;;13.30;11.30;;;;;;;23.33;73.77;99107.65;214153;1276;140600;-65
2022/08/15 06:46:05;;;;;;;12.50;11.30;;;;;;;23.35;73.89;99104.79;214823;1276;141403;-65
2022/08/15 06:51:32;;;;;;;14.70;12.00;;;;;;;23.35;73.77;99100.05;213315;1277;140707;-65
2022/08/15 06:57:27;;;;;;;15.00;11.70;;;;;;;23.38;74.16;99096.25;213398;1277;141466;-65
2022/08/15 07:02:47;;;;;;;14.00;12.50;;;;;;;23.42;74.25;99098.66;214971;1277;141823;-65
2022/08/15 07:08:28;;;;;;;19.10;12.90;;;;;;;23.41;74.14;99102.35;215755;1276;140631;-65
2022/08/15 07:13:52;;;;;;;13.70;12.40;;;;;;;23.40;74.40;99108.45;215719;1276;140440;-65
2022/08/15 07:19:14;;;;;;;17.00;14.60;;;;;;;23.62;74.44;99105.58;215350;1276;140810;-65
2022/08/15 07:24:19;;;;;;;14.50;12.10;;;;;;;23.77;74.57;99112.19;215792;1276;139852;-66
2022/08/15 07:29:37;;;;;;;14.50;11.80;;;;;;;23.80;73.93;99114.80;214963;1276;141256;-65
2022/08/15 07:35:26;;;;;;;14.20;11.90;;;;;;;23.95;73.86;99116.19;213570;1277;140802;-66
2022/08/15 07:40:38;;;;;;;14.80;12.70;;;;;;;23.94;73.05;99114.86;213394;1277;141737;-65
2022/08/15 07:45:45;;;;;;;13.70;12.30;;;;;;;23.81;73.34;99116.87;214629;1277;142101;-66
2022/08/15 07:51:03;;;;;;;15.70;12.70;;;;;;;23.64;72.84;99115.92;214187;1277;140269;-66
2022/08/15 07:56:18;;;;;;;15.80;12.90;;;;;;;23.58;72.98;99117.91;214536;1277;141421;-67
2022/08/15 08:01:46;;;;;;;15.40;13.90;;;;;;;23.82;73.53;99114.39;213898;1277;141736;-67
2022/08/15 08:07:21;;;;;;;13.70;12.30;;;;;;;24.00;72.88;99119.48;213591;1277;141546;-67
2022/08/15 08:12:46;;;;;;;14.90;12.90;;;;;;;24.08;72.69;99121.27;213606;1277;141254;-67
2022/08/15 08:18:21;;;;;;;15.30;13.30;;;;;;;24.36;72.60;99129.19;213351;1277;141711;-66
2022/08/15 08:23:49;;;;;;;12.10;10.90;;;;;;;24.68;71.70;99130.57;213758;1277;141529;-66
2022/08/15 08:29:16;;;;;;;11.40;10.30;;;;;;;24.60;71.27;99131.40;213609;1276;140892;-66
2022/08/15 08:34:37;;;;;;;10.20;9.20;;;;;;;24.61;71.05;99134.09;213115;1277;142547;-66
2022/08/15 08:41:24;;;;;;;13.10;10.60;;;;;;;24.54;70.10;99131.20;213913;1277;140578;-66
2022/08/15 08:45:43;;;;;;;11.50;9.90;;;;;;;24.37;70.00;99132.72;213369;1277;141232;-66
2022/08/15 08:51:17;;;;;;;10.00;9.20;;;;;;;24.31;69.46;99138.58;213535;1277;141828;-65
2022/08/15 08:56:34;;;;;;;8.70;8.00;;;;;;;24.21;69.46;99142.05;213316;1277;142561;-65
2022/08/15 09:01:39;;;;;;;9.40;8.50;;;;;;;24.12;69.10;99140.82;214125;1276;140751;-66
2022/08/15 09:06:48;;;;;;;9.30;8.50;;;;;;;24.18;69.35;99139.45;215983;1276;140191;-66
2022/08/15 09:12:01;;;;;;;9.90;9.00;;;;;;;24.35;68.74;99146.74;215455;1277;142878;-66
2022/08/15 09:17:13;;;;;;;8.70;7.90;;;;;;;24.45;68.24;99147.83;214914;1277;140452;-65
2022/08/15 09:22:34;;;;;;;10.50;7.90;;;;;;;24.33;67.73;99150.27;213622;1276;141033;-65
2022/08/15 09:27:49;;;;;;;9.20;8.20;;;;;;;24.26;68.00;99145.81;213129;1276;140853;-65
2022/08/15 09:33:02;;;;;;;11.30;8.90;;;;;;;24.16;67.60;99141.55;214733;1276;141580;-65
2022/08/15 09:38:16;;;;;;;10.90;8.10;;;;;;;24.03;67.56;99138.20;214492;1276;142663;-64
2022/08/15 09:43:57;;;;;;;8.20;7.50;;;;;;;23.93;67.80;99127.64;214996;1277;140562;-66
2022/08/15 09:49:38;;;;;;;9.30;8.20;;;;;;;24.21;68.39;99122.99;214880;1277;139656;-65
2022/08/15 09:54:56;;;;;;;10.50;9.00;;;;;;;24.59;67.76;99126.70;213872;1276;140997;-68
2022/08/15 10:00:15;;;;;;;10.80;8.90;;;;;;;24.80;67.36;99125.79;214588;1276;140258;-67
2022/08/15 10:05:29;;;;;;;8.90;7.90;;;;;;;24.89;66.60;99123.17;213768;1277;140151;-66
2022/08/15 10:10:49;;;;;;;11.60;8.10;;;;;;;24.92;66.34;99116.80;213498;1276;140471;-67
2022/08/15 10:15:55;;;;;;;12.40;8.60;;;;;;;24.93;66.44;99112.95;213017;1276;140085;-67
2022/08/15 10:21:19;;;;;;;9.00;8.20;;;;;;;25.01;66.41;99104.27;213188;1276;140548;-66
2022/08/15 10:26:31;;;;;;;9.60;8.60;;;;;;;25.10;66.28;99101.52;213994;1277;139485;-65
2022/08/15 10:31:59;;;;;;;8.60;7.60;;;;;;;25.23;65.81;99092.79;213328;1276;140465;-66
2022/08/15 10:37:31;;;;;;;8.20;7.40;;;;;;;25.35;65.49;99092.58;214574;1277;140078;-65
2022/08/15 10:43:07;;;;;;;8.70;7.90;;;;;;;25.56;65.02;99089.16;212766;1276;139958;-66
2022/08/15 10:48:37;;;;;;;11.40;7.80;;;;;;;25.92;64.42;99089.80;213665;1277;139469;-67
2022/08/15 10:53:51;;;;;;;11.20;8.00;;;;;;;26.56;64.10;99083.83;214751;1276;140171;-65
2022/08/15 10:59:05;;;;;;;11.40;7.10;;;;;;;27.46;63.11;99080.73;213208;1277;140614;-67
2022/08/15 11:04:29;;;;;;;9.90;7.40;;;;;;;27.80;61.81;99075.34;215267;1276;141669;-67
2022/08/15 11:09:56;;;;;;;8.30;6.60;;;;;;;27.99;60.79;99072.98;215410;1276;141810;-67
2022/08/15 11:15:09;;;;;;;7.30;6.50;;;;;;;28.21;60.48;99070.76;214829;1276;140490;-67
2022/08/15 11:20:34;;;;;;;7.00;6.40;;;;;;;28.23;59.32;99065.92;215319;1276;140406;-67
2022/08/15 11:25:41;;;;;;;7.00;5.30;;;;;;;28.39;58.34;99063.77;215299;1276;139678;-68
2022/08/15 11:30:45;;;;;;;7.20;6.50;;;;;;;28.59;58.50;99061.62;214677;1276;139716;-65
2022/08/15 11:36:01;;;;;;;6.70;6.00;;;;;;;28.79;57.68;99062.89;215221;1276;139888;-65
2022/08/15 11:41:05;;;;;;;6.60;5.90;;;;;;;29.05;57.28;99060.03;213382;1276;141429;-65
2022/08/15 11:46:11;;;;;;;6.20;5.70;;;;;;;29.42;56.76;99053.09;214590;1276;141243;-65
2022/08/15 11:51:46;;;;;;;7.60;6.70;;;;;;;29.91;55.85;99049.78;214528;1276;140253;-67
2022/08/15 11:57:21;;;;;;;7.40;6.70;;;;;;;30.22;54.99;99052.08;214205;1276;139832;-65
2022/08/15 12:02:45;;;;;;;6.60;6.00;;;;;;;30.31;54.16;99038.92;214249;1276;142133;-65
2022/08/15 12:08:08;;;;;;;7.30;6.60;;;;;;;30.25;53.36;99041.27;214659;1276;140194;-65
2022/08/15 12:13:31;;;;;;;7.30;6.60;;;;;;;30.12;53.47;99033.55;213684;1276;140119;-66
2022/08/15 12:18:38;;;;;;;10.90;7.30;;;;;;;30.17;53.01;99020.63;213829;1276;140502;-68
2022/08/15 12:23:59;;;;;;;12.60;8.00;;;;;;;30.12;53.03;99012.82;212883;1276;140469;-68
2022/08/15 12:29:10;;;;;;;7.80;6.70;;;;;;;30.11;52.72;99009.59;213668;1276;140134;-67
2022/08/15 12:34:26;;;;;;;6.40;5.80;;;;;;;30.14;52.51;99010.39;214263;1276;140274;-66
2022/08/15 12:39:49;;;;;;;7.40;5.40;;;;;;;30.03;52.19;99012.98;214403;1277;140340;-66
2022/08/15 12:45:14;;;;;;;7.30;6.40;;;;;;;30.06;51.96;99014.89;214265;1276;139947;-64
2022/08/15 12:50:18;;;;;;;7.80;7.00;;;;;;;29.88;51.06;99005.86;214369;1276;144104;-67
2022/08/15 12:55:30;;;;;;;7.70;7.00;;;;;;;29.73;51.13;99000.56;213083;1276;151268;-64
2022/08/15 13:00:35;;;;;;;10.30;6.60;;;;;;;29.71;51.56;98996.31;214416;1276;140869;-65
2022/08/15 13:05:41;;;;;;;8.40;5.00;;;;;;;29.56;51.37;98993.67;214962;1276;140267;-65
2022/08/15 13:11:08;;;;;;;8.20;6.80;;;;;;;29.36;51.09;98986.81;215593;1276;140419;-65
2022/08/15 13:16:18;;;;;;;9.00;7.90;;;;;;;29.26;51.81;98982.95;214625;1276;140450;-65
2022/08/15 13:27:08;;;;;;;7.00;6.20;;;;;;;29.58;51.51;98978.16;216034;1275;139801;-67
2022/08/15 13:32:12;;;;;;;7.40;6.80;;;;;;;29.38;51.28;98976.08;215750;1277;139683;-67
2022/08/15 13:37:16;;;;;;;7.40;6.70;;;;;;;29.45;51.79;98969.73;215309;1276;141512;-66
2022/08/15 13:42:40;;;;;;;9.50;7.30;;;;;;;29.54;51.73;98968.41;215060;1276;235088;-67
2022/08/15 13:47:46;;;;;;;8.20;7.40;;;;;;;29.51;51.25;98966.89;213052;1276;1501801;-66
2022/08/15 13:52:57;;;;;;;8.50;6.70;;;;;;;29.39;51.07;98968.00;214743;1276;152675;-66
2022/08/15 13:58:01;;;;;;;9.10;7.80;;;;;;;29.41;51.49;98967.58;214369;1276;140384;-65
2022/08/15 14:03:19;;;;;;;9.70;7.20;;;;;;;29.49;51.29;98957.30;213889;1276;222173;-66
2022/08/15 14:08:26;;;;;;;7.70;7.10;;;;;;;29.50;51.39;98957.23;212783;1276;140384;-66
2022/08/15 14:13:51;;;;;;;8.10;7.30;;;;;;;29.42;50.88;98961.62;213630;1274;141932;-67
2022/08/15 14:18:56;;;;;;;9.10;7.00;;;;;;;29.20;50.80;98961.23;215499;1276;139941;-68
2022/08/15 14:24:11;;;;;;;8.70;7.50;;;;;;;29.12;51.49;98952.69;213490;1276;139627;-65
2022/08/15 14:29:41;;;;;;;8.30;6.60;;;;;;;28.97;51.59;98949.33;213041;1276;139788;-66
2022/08/15 14:34:52;;;;;;;16.60;7.20;;;;;;;28.78;51.86;98947.45;213469;1276;139728;-66
2022/08/15 14:40:00;;;;;;;8.50;6.30;;;;;;;28.61;52.07;98944.60;214190;1276;140701;-66
2022/08/15 14:45:05;;;;;;;7.60;6.60;;;;;;;28.54;52.70;98941.45;213929;1276;140512;-68
2022/08/15 14:50:26;;;;;;;6.80;6.20;;;;;;;28.58;52.82;98939.23;214150;1276;139117;-67
2022/08/15 14:55:53;;;;;;;6.90;6.30;;;;;;;28.69;53.27;98932.00;214217;1274;205799;-67
2022/08/15 15:00:59;;;;;;;7.70;7.00;;;;;;;28.74;53.22;98934.80;213787;1277;140183;-66
2022/08/15 15:06:25;;;;;;;6.90;6.20;;;;;;;28.80;53.12;98932.91;215309;1276;140851;-66
2022/08/15 15:11:35;;;;;;;7.60;6.90;;;;;;;28.66;53.06;98928.36;215667;1276;140718;-68
2022/08/15 15:16:46;;;;;;;7.70;6.40;;;;;;;28.72;53.68;98921.92;215651;1274;141323;-68
2022/08/15 15:21:55;;;;;;;7.90;7.20;;;;;;;28.80;53.20;98916.92;215703;1276;140267;-69
2022/08/15 15:26:59;;;;;;;7.10;6.50;;;;;;;28.79;53.27;98908.98;215858;1276;140621;-70
2022/08/15 15:32:03;;;;;;;9.50;5.60;;;;;;;28.79;52.91;98901.06;214523;1275;139614;-65
2022/08/15 15:37:32;;;;;;;9.40;8.40;;;;;;;28.81;52.86;98897.66;214040;1276;150924;-66
2022/08/15 15:42:36;;;;;;;8.00;7.20;;;;;;;28.84;52.82;98897.69;214544;1276;140276;-65
2022/08/15 15:47:43;;;;;;;10.00;7.40;;;;;;;28.82;53.05;98890.14;214260;1276;140032;-64
2022/08/15 15:53:20;;;;;;;8.80;6.80;;;;;;;28.75;52.79;98892.25;215112;1274;140905;-64
2022/08/15 15:58:25;;;;;;;9.20;8.30;;;;;;;28.63;52.87;98889.48;213663;1274;139353;-65
2022/08/15 16:03:49;;;;;;;8.20;7.60;;;;;;;28.61;53.00;98884.36;214331;1277;139416;-66
2022/08/15 16:09:10;;;;;;;8.20;7.40;;;;;;;28.53;53.15;98885.42;213422;1277;141152;-65
2022/08/15 16:14:51;;;;;;;7.60;7.00;;;;;;;28.45;53.16;98885.89;212891;1277;140941;-66
2022/08/15 16:20:17;;;;;;;10.60;7.40;;;;;;;28.25;53.35;98881.64;212618;1277;141198;-66
2022/08/15 16:26:08;;;;;;;11.10;8.30;;;;;;;28.01;53.79;98878.91;213285;1277;143745;-67
2022/08/15 16:31:51;;;;;;;7.40;6.70;;;;;;;27.99;53.99;98880.20;214003;1277;141637;-66
2022/08/15 16:37:08;;;;;;;10.90;7.70;;;;;;;27.88;53.74;98878.09;213447;1277;139802;-66
2022/08/15 16:42:31;;;;;;;9.10;8.30;;;;;;;27.78;54.15;98877.80;212657;1277;140468;-67
2022/08/15 16:48:49;;;;;;;10.10;8.20;;;;;;;27.68;54.32;98878.52;213503;1278;141181;-67
2022/08/15 16:54:33;;;;;;;9.90;8.10;;;;;;;27.52;54.55;98878.41;211262;1285;141705;-66
2022/08/15 16:59:45;;;;;;;9.70;8.50;;;;;;;27.42;54.77;98878.19;214026;1276;152462;-66
2022/08/15 17:05:14;;;;;;;11.20;7.70;;;;;;;27.32;54.92;98881.92;214040;1276;140500;-66
2022/08/15 17:10:32;;;;;;;8.70;7.70;;;;;;;27.19;55.39;98887.96;214249;1276;141560;-66
2022/08/15 17:15:48;;;;;;;11.50;10.10;;;;;;;27.02;55.78;98894.48;215252;1276;140396;-67
2022/08/15 17:21:03;;;;;;;8.30;7.60;;;;;;;26.86;56.30;98895.27;215792;1276;140884;-68
2022/08/15 17:26:17;;;;;;;10.20;9.30;;;;;;;26.67;56.80;98897.17;215438;1276;140626;-68
2022/08/15 17:31:42;;;;;;;14.50;10.00;;;;;;;26.45;57.18;98899.73;215876;1276;139843;-66
2022/08/15 17:36:46;;;;;;;15.70;12.70;;;;;;;26.27;57.66;98910.98;213345;1276;139546;-67
2022/08/15 17:41:52;;;;;;;17.60;13.00;;;;;;;26.06;58.10;98918.00;215034;1275;139974;-66
2022/08/15 17:47:19;;;;;;;18.70;12.70;;;;;;;25.83;58.50;98926.24;214781;1276;140339;-67
2022/08/15 17:52:31;;;;;;;19.10;11.90;;;;;;;25.66;58.94;98924.88;214909;1276;235797;-67
2022/08/15 17:57:42;;;;;;;13.80;11.50;;;;;;;25.49;59.58;98926.18;214078;1276;141073;-67
2022/08/15 18:03:10;;;;;;;12.50;10.80;;;;;;;25.34;59.89;98934.08;213293;1276;140902;-66
2022/08/15 18:08:18;;;;;;;16.10;11.50;;;;;;;25.16;60.21;98939.94;213646;1276;140359;-68
2022/08/15 18:13:26;;;;;;;12.70;11.10;;;;;;;24.99;60.61;98945.26;214423;1276;142240;-65
2022/08/15 18:18:33;;;;;;;13.20;10.00;;;;;;;24.81;60.84;98949.96;213411;1276;139746;-66
2022/08/15 18:23:39;;;;;;;15.20;11.20;;;;;;;24.64;61.24;98956.88;213331;1276;140121;-66
2022/08/15 18:29:04;;;;;;;17.80;10.20;;;;;;;24.46;61.41;98963.70;213992;1276;140537;-66
2022/08/15 18:34:10;;;;;;;11.10;9.90;;;;;;;24.31;61.88;98969.33;215007;1276;141454;-68
2022/08/15 18:45:00;;;;;;;10.80;9.70;;;;;;;23.93;62.57;98983.15;214794;1276;142153;-68
2022/08/15 18:50:26;;;;;;;13.20;11.60;;;;;;;23.71;62.97;98989.77;214350;1276;140242;-67
2022/08/15 18:55:51;;;;;;;12.10;10.90;;;;;;;23.55;63.24;98994.73;214121;1276;141602;-66
2022/08/15 19:01:13;;;;;;;12.90;11.40;;;;;;;23.45;63.58;99001.86;214538;1276;141602;-66
2022/08/15 19:06:34;;;;;;;11.60;9.30;;;;;;;23.42;63.78;99011.16;213342;1276;141909;-68
2022/08/15 19:11:59;;;;;;;10.20;8.80;;;;;;;23.38;63.89;99014.69;215561;1276;139916;-67
2022/08/15 19:17:14;;;;;;;11.20;9.10;;;;;;;23.37;63.77;99015.18;215698;1276;141010;-66
2022/08/15 19:22:21;;;;;;;10.00;8.40;;;;;;;23.39;63.53;99018.05;214450;1276;142273;-67
2022/08/15 19:27:59;;;;;;;10.00;8.20;;;;;;;23.40;63.30;99023.45;214937;1276;140536;-65
2022/08/15 19:33:05;;;;;;;10.10;8.70;;;;;;;23.37;63.36;99022.70;214840;1276;141086;-65
2022/08/15 19:38:29;;;;;;;13.30;8.60;;;;;;;23.34;63.34;99023.46;214952;1276;141384;-69
2022/08/15 19:44:07;;;;;;;10.40;9.00;;;;;;;23.33;63.06;99030.52;213977;1276;140682;-67
2022/08/15 19:55:27;;;;;;;10.20;8.10;;;;;;;23.19;63.53;99039.98;213954;1276;141443;-67
2022/08/15 20:00:50;;;;;;;10.50;8.20;;;;;;;23.10;63.90;99045.85;214720;1276;141433;-66
2022/08/15 20:06:10;;;;;;;10.80;9.70;;;;;;;23.04;64.12;99044.15;214424;1276;142142;-63
2022/08/15 20:11:41;;;;;;;9.40;8.20;;;;;;;23.03;64.36;99044.66;213607;1276;141304;-65
2022/08/15 20:16:54;;;;;;;10.50;7.90;;;;;;;22.98;64.52;99045.17;213532;1275;140754;-66
2022/08/15 20:22:34;;;;;;;8.30;7.50;;;;;;;22.88;64.62;99045.30;214161;1276;139502;-67
2022/08/15 20:27:50;;;;;;;10.10;7.80;;;;;;;22.75;64.95;99049.93;213173;1276;140350;-66
2022/08/15 20:33:01;;;;;;;8.30;7.60;;;;;;;22.67;65.44;99047.73;214596;1276;140667;-66
2022/08/15 20:38:20;;;;;;;8.30;7.60;;;;;;;22.58;65.88;99054.40;213250;1276;141534;-65
2022/08/15 20:43:38;;;;;;;8.30;6.00;;;;;;;22.52;66.10;99060.16;212850;1276;140338;-66
2022/08/15 20:48:54;;;;;;;9.60;8.60;;;;;;;22.48;66.24;99068.77;213227;1276;140833;-66
2022/08/15 20:54:08;;;;;;;19.20;9.10;;;;;;;22.39;66.64;99069.55;213186;1276;140757;-66
2022/08/15 20:59:41;;;;;;;8.00;7.40;;;;;;;22.33;66.85;99068.73;214083;1276;141880;-66
2022/08/15 21:05:14;;;;;;;8.10;7.40;;;;;;;22.26;67.23;99068.21;214172;1276;141247;-66
2022/08/15 21:10:40;;;;;;;14.30;8.50;;;;;;;22.21;67.48;99072.68;215203;1276;140751;-66
2022/08/15 21:15:57;;;;;;;12.60;9.50;;;;;;;22.22;67.63;99076.50;215956;1275;141647;-69
2022/08/15 21:21:11;;;;;;;11.20;7.80;;;;;;;22.20;67.78;99070.98;215865;1276;140623;-68
2022/08/15 21:26:34;;;;;;;10.40;8.40;;;;;;;22.22;67.97;99067.88;215290;1276;141566;-68
2022/08/15 21:32:11;;;;;;;9.60;8.60;;;;;;;22.20;68.41;99064.02;214882;1276;140787;-66
2022/08/15 21:37:51;;;;;;;11.20;9.40;;;;;;;22.16;68.58;99060.91;215584;1276;141191;-67
2022/08/15 21:42:57;;;;;;;11.80;9.80;;;;;;;22.15;68.89;99061.71;214271;1276;142263;-66
2022/08/15 21:48:20;;;;;;;12.00;9.60;;;;;;;22.09;69.20;99061.55;214698;1276;142984;-68
2022/08/15 21:53:45;;;;;;;11.20;9.50;;;;;;;22.05;69.33;99063.02;213034;1274;141321;-67
2022/08/15 21:59:09;;;;;;;11.10;10.00;;;;;;;21.96;69.71;99064.83;213951;1276;142716;-67
2022/08/15 22:04:30;;;;;;;11.70;9.80;;;;;;;21.88;70.04;99067.05;213068;1276;141270;-67
2022/08/15 22:09:41;;;;;;;12.80;10.40;;;;;;;21.85;70.37;99069.20;214416;1276;142965;-68
2022/08/15 22:15:11;;;;;;;11.40;10.20;;;;;;;21.85;70.42;99066.55;214444;1276;141017;-67
2022/08/15 22:20:18;;;;;;;11.00;9.40;;;;;;;21.85;70.64;99070.25;215130;1276;140515;-69
2022/08/15 22:25:41;;;;;;;14.40;9.90;;;;;;;21.85;70.87;99077.55;214101;1276;140490;-67
2022/08/15 22:30:47;;;;;;;11.60;9.90;;;;;;;21.82;71.00;99076.96;214101;1276;140256;-68
2022/08/15 22:35:56;;;;;;;12.80;9.50;;;;;;;21.81;70.97;99074.06;212978;1276;141520;-67
2022/08/15 22:41:03;;;;;;;12.90;11.00;;;;;;;21.79;71.17;99073.05;214024;1276;142478;-66
2022/08/15 22:46:29;;;;;;;13.60;11.60;;;;;;;21.70;71.38;99076.38;213886;1276;140880;-66
2022/08/15 22:51:45;;;;;;;13.50;10.90;;;;;;;21.66;71.64;99073.14;214031;1276;140421;-67
2022/08/15 22:56:56;;;;;;;10.90;9.80;;;;;;;21.63;71.81;99067.63;213564;1276;141791;-67
2022/08/15 23:02:05;;;;;;;11.40;10.20;;;;;;;21.52;71.95;99071.88;214988;1276;140519;-68
2022/08/15 23:07:33;;;;;;;10.20;9.30;;;;;;;21.46;72.19;99073.32;213858;1276;140026;-69
2022/08/15 23:12:43;;;;;;;12.10;10.90;;;;;;;21.42;72.35;99064.17;214316;1276;142400;-67
2022/08/15 23:17:57;;;;;;;11.20;10.10;;;;;;;21.39;72.54;99060.75;215666;1276;141565;-67
2022/08/15 23:23:08;;;;;;;14.50;11.40;;;;;;;21.38;72.90;99060.93;215894;1276;140451;-67
2022/08/15 23:28:12;;;;;;;12.10;10.90;;;;;;;21.44;72.77;99068.39;215230;1276;142243;-67
2022/08/15 23:33:36;;;;;;;12.80;11.10;;;;;;;21.39;72.79;99066.08;215797;1276;141000;-68
2022/08/15 23:39:03;;;;;;;14.90;10.50;;;;;;;21.35;72.91;99061.64;215935;1276;140840;-68
2022/08/15 23:44:07;;;;;;;14.10;11.30;;;;;;;21.26;72.92;99062.02;215113;1276;142295;-67
2022/08/15 23:49:23;;;;;;;15.70;10.50;;;;;;;21.17;73.12;99060.79;214604;1276;141812;-68
2022/08/15 23:54:32;;;;;;;17.20;11.40;;;;;;;21.04;73.33;99065.68;213035;1276;141173;-68
2022/08/15 23:59:41;;;;;;;13.00;10.40;;;;;;;20.93;73.74;99064.13;214372;1277;140179;-69
